sensor_id;sensor_type;location;lat;lon;timestamp;temperature;humidity
51305;HTU21D;37392;50.964;6.952;2023-05-19T00:00:31;8.87;90.14
51305;HTU21D;37392;50.964;6.952;2023-05-19T00:02:57;8.87;89.96
51305;HTU21D;37392;50.964;6.952;2023-05-19T00:05:24;8.77;89.93
51305;HTU21D;37392;50.964;6.952;2023-05-19T00:07:52;8.78;90.53
51305;HTU21D;37392;50.964;6.952;2023-05-19T00:10:21;8.78;90.74
51305;HTU21D;37392;50.964;6.952;2023-05-19T00:12:47;8.74;90.58
51305;HTU21D;37392;50.964;6.952;2023-05-19T00:15:13;8.70;90.65
51305;HTU21D;37392;50.964;6.952;2023-05-19T00:17:39;8.66;90.82
51305;HTU21D;37392;50.964;6.952;2023-05-19T00:20:06;8.61;90.91
51305;HTU21D;37392;50.964;6.952;2023-05-19T00:22:32;8.57;91.42
51305;HTU21D;37392;50.964;6.952;2023-05-19T00:24:58;8.55;91.10
51305;HTU21D;37392;50.964;6.952;2023-05-19T00:27:23;8.39;90.93
51305;HTU21D;37392;50.964;6.952;2023-05-19T00:29:49;8.24;91.09
51305;HTU21D;37392;50.964;6.952;2023-05-19T00:32:14;8.15;91.35
51305;HTU21D;37392;50.964;6.952;2023-05-19T00:34:40;8.01;91.56
51305;HTU21D;37392;50.964;6.952;2023-05-19T00:37:05;7.93;91.89
51305;HTU21D;37392;50.964;6.952;2023-05-19T00:39:31;7.83;92.32
51305;HTU21D;37392;50.964;6.952;2023-05-19T00:41:56;7.76;92.79
51305;HTU21D;37392;50.964;6.952;2023-05-19T00:44:22;7.63;92.88
51305;HTU21D;37392;50.964;6.952;2023-05-19T00:46:47;7.62;93.34
51305;HTU21D;37392;50.964;6.952;2023-05-19T00:49:12;7.59;93.49
51305;HTU21D;37392;50.964;6.952;2023-05-19T00:51:38;7.50;93.50
51305;HTU21D;37392;50.964;6.952;2023-05-19T00:54:04;7.46;93.77
51305;HTU21D;37392;50.964;6.952;2023-05-19T00:56:30;7.39;93.95
51305;HTU21D;37392;50.964;6.952;2023-05-19T00:58:56;7.30;94.33
51305;HTU21D;37392;50.964;6.952;2023-05-19T01:01:21;7.27;94.62
51305;HTU21D;37392;50.964;6.952;2023-05-19T01:03:47;7.23;95.17
51305;HTU21D;37392;50.964;6.952;2023-05-19T01:06:13;7.17;95.14
51305;HTU21D;37392;50.964;6.952;2023-05-19T01:08:39;7.11;95.33
51305;HTU21D;37392;50.964;6.952;2023-05-19T01:11:05;7.05;95.77
51305;HTU21D;37392;50.964;6.952;2023-05-19T01:13:31;6.99;95.83
51305;HTU21D;37392;50.964;6.952;2023-05-19T01:18:49;6.84;96.27
51305;HTU21D;37392;50.964;6.952;2023-05-19T01:24:33;6.75;97.18
51305;HTU21D;37392;50.964;6.952;2023-05-19T01:32:55;6.60;98.00
51305;HTU21D;37392;50.964;6.952;2023-05-19T01:35:23;6.57;98.05
51305;HTU21D;37392;50.964;6.952;2023-05-19T01:37:54;6.53;98.42
51305;HTU21D;37392;50.964;6.952;2023-05-19T01:40:22;6.45;98.93
51305;HTU21D;37392;50.964;6.952;2023-05-19T01:42:48;6.43;99.19
51305;HTU21D;37392;50.964;6.952;2023-05-19T01:45:15;6.44;99.58
51305;HTU21D;37392;50.964;6.952;2023-05-19T01:47:42;6.41;99.74
51305;HTU21D;37392;50.964;6.952;2023-05-19T01:50:08;6.40;99.96
51305;HTU21D;37392;50.964;6.952;2023-05-19T01:52:35;6.38;100.21
51305;HTU21D;37392;50.964;6.952;2023-05-19T01:55:00;6.35;100.20
51305;HTU21D;37392;50.964;6.952;2023-05-19T01:57:35;6.30;101.12
51305;HTU21D;37392;50.964;6.952;2023-05-19T02:08:31;6.25;101.78
51305;HTU21D;37392;50.964;6.952;2023-05-19T02:11:16;6.29;101.86
51305;HTU21D;37392;50.964;6.952;2023-05-19T02:14:07;6.30;102.19
51305;HTU21D;37392;50.964;6.952;2023-05-19T02:16:35;6.31;102.70
51305;HTU21D;37392;50.964;6.952;2023-05-19T02:19:02;6.34;103.24
51305;HTU21D;37392;50.964;6.952;2023-05-19T02:21:28;6.45;104.36
51305;HTU21D;37392;50.964;6.952;2023-05-19T02:23:53;6.55;104.98
51305;HTU21D;37392;50.964;6.952;2023-05-19T02:26:19;6.64;104.72
51305;HTU21D;37392;50.964;6.952;2023-05-19T02:28:45;6.66;104.98
51305;HTU21D;37392;50.964;6.952;2023-05-19T02:31:10;6.74;105.16
51305;HTU21D;37392;50.964;6.952;2023-05-19T02:33:36;6.72;104.60
51305;HTU21D;37392;50.964;6.952;2023-05-19T02:36:01;6.73;105.07
51305;HTU21D;37392;50.964;6.952;2023-05-19T02:38:27;6.58;104.15
51305;HTU21D;37392;50.964;6.952;2023-05-19T02:40:52;6.51;104.89
51305;HTU21D;37392;50.964;6.952;2023-05-19T02:43:18;6.50;104.63
51305;HTU21D;37392;50.964;6.952;2023-05-19T02:45:44;6.39;104.73
51305;HTU21D;37392;50.964;6.952;2023-05-19T02:48:11;6.41;106.05
51305;HTU21D;37392;50.964;6.952;2023-05-19T02:50:36;6.39;105.72
51305;HTU21D;37392;50.964;6.952;2023-05-19T02:53:02;6.38;105.69
51305;HTU21D;37392;50.964;6.952;2023-05-19T02:55:28;6.42;106.27
51305;HTU21D;37392;50.964;6.952;2023-05-19T02:57:53;6.44;105.89
51305;HTU21D;37392;50.964;6.952;2023-05-19T03:00:19;6.48;107.30
51305;HTU21D;37392;50.964;6.952;2023-05-19T03:02:45;6.41;106.66
51305;HTU21D;37392;50.964;6.952;2023-05-19T03:05:10;6.34;106.27
51305;HTU21D;37392;50.964;6.952;2023-05-19T03:07:36;6.28;105.99
51305;HTU21D;37392;50.964;6.952;2023-05-19T03:10:01;6.14;106.01
51305;HTU21D;37392;50.964;6.952;2023-05-19T03:12:31;6.11;106.40
51305;HTU21D;37392;50.964;6.952;2023-05-19T03:14:57;6.05;106.17
51305;HTU21D;37392;50.964;6.952;2023-05-19T03:17:23;5.96;105.88
51305;HTU21D;37392;50.964;6.952;2023-05-19T03:19:49;5.86;106.33
51305;HTU21D;37392;50.964;6.952;2023-05-19T03:22:15;5.80;106.60
51305;HTU21D;37392;50.964;6.952;2023-05-19T03:24:42;5.71;106.80
51305;HTU21D;37392;50.964;6.952;2023-05-19T03:27:08;5.67;106.77
51305;HTU21D;37392;50.964;6.952;2023-05-19T03:29:33;5.66;107.50
51305;HTU21D;37392;50.964;6.952;2023-05-19T03:31:59;5.71;107.81
51305;HTU21D;37392;50.964;6.952;2023-05-19T03:34:25;5.74;107.78
51305;HTU21D;37392;50.964;6.952;2023-05-19T03:36:57;5.76;107.56
51305;HTU21D;37392;50.964;6.952;2023-05-19T03:39:23;5.83;108.00
51305;HTU21D;37392;50.964;6.952;2023-05-19T03:41:48;5.87;107.45
51305;HTU21D;37392;50.964;6.952;2023-05-19T03:44:14;5.84;107.23
51305;HTU21D;37392;50.964;6.952;2023-05-19T03:46:39;5.86;107.61
51305;HTU21D;37392;50.964;6.952;2023-05-19T03:49:05;5.92;108.11
51305;HTU21D;37392;50.964;6.952;2023-05-19T03:51:31;5.95;107.80
51305;HTU21D;37392;50.964;6.952;2023-05-19T03:53:58;5.98;107.62
51305;HTU21D;37392;50.964;6.952;2023-05-19T03:56:24;6.09;108.11
51305;HTU21D;37392;50.964;6.952;2023-05-19T03:58:51;6.30;108.88
51305;HTU21D;37392;50.964;6.952;2023-05-19T04:01:18;6.44;108.62
51305;HTU21D;37392;50.964;6.952;2023-05-19T04:03:44;6.70;109.65
51305;HTU21D;37392;50.964;6.952;2023-05-19T04:06:10;6.79;108.40
51305;HTU21D;37392;50.964;6.952;2023-05-19T04:08:37;6.91;108.41
51305;HTU21D;37392;50.964;6.952;2023-05-19T04:11:03;7.07;107.69
51305;HTU21D;37392;50.964;6.952;2023-05-19T04:13:31;7.31;107.99
51305;HTU21D;37392;50.964;6.952;2023-05-19T04:15:57;7.63;107.33
51305;HTU21D;37392;50.964;6.952;2023-05-19T04:18:23;8.00;106.00
51305;HTU21D;37392;50.964;6.952;2023-05-19T04:20:48;8.64;106.60
51305;HTU21D;37392;50.964;6.952;2023-05-19T04:23:13;9.51;104.60
51305;HTU21D;37392;50.964;6.952;2023-05-19T04:25:39;10.35;101.32
51305;HTU21D;37392;50.964;6.952;2023-05-19T04:28:05;11.24;97.41
51305;HTU21D;37392;50.964;6.952;2023-05-19T04:30:31;12.00;91.81
51305;HTU21D;37392;50.964;6.952;2023-05-19T04:32:58;12.64;88.58
51305;HTU21D;37392;50.964;6.952;2023-05-19T04:35:25;13.32;85.88
51305;HTU21D;37392;50.964;6.952;2023-05-19T04:37:51;13.18;84.26
51305;HTU21D;37392;50.964;6.952;2023-05-19T04:40:18;14.08;81.69
51305;HTU21D;37392;50.964;6.952;2023-05-19T04:42:50;14.65;78.53
51305;HTU21D;37392;50.964;6.952;2023-05-19T04:45:16;15.38;77.08
51305;HTU21D;37392;50.964;6.952;2023-05-19T04:47:42;15.99;74.47
51305;HTU21D;37392;50.964;6.952;2023-05-19T04:50:08;16.57;70.84
51305;HTU21D;37392;50.964;6.952;2023-05-19T04:52:35;17.18;68.75
51305;HTU21D;37392;50.964;6.952;2023-05-19T04:55:02;17.36;67.01
51305;HTU21D;37392;50.964;6.952;2023-05-19T04:57:27;17.87;65.40
51305;HTU21D;37392;50.964;6.952;2023-05-19T04:59:53;18.47;63.53
51305;HTU21D;37392;50.964;6.952;2023-05-19T05:02:24;18.57;62.08
51305;HTU21D;37392;50.964;6.952;2023-05-19T05:04:52;19.13;60.57
51305;HTU21D;37392;50.964;6.952;2023-05-19T05:07:21;19.50;59.58
51305;HTU21D;37392;50.964;6.952;2023-05-19T05:09:47;20.11;58.25
51305;HTU21D;37392;50.964;6.952;2023-05-19T05:12:13;21.00;55.49
51305;HTU21D;37392;50.964;6.952;2023-05-19T05:14:39;21.31;53.64
51305;HTU21D;37392;50.964;6.952;2023-05-19T05:17:05;21.67;52.68
51305;HTU21D;37392;50.964;6.952;2023-05-19T05:19:32;21.75;51.60
51305;HTU21D;37392;50.964;6.952;2023-05-19T05:21:58;21.96;51.36
51305;HTU21D;37392;50.964;6.952;2023-05-19T05:24:24;22.25;50.81
51305;HTU21D;37392;50.964;6.952;2023-05-19T05:26:49;22.38;50.10
51305;HTU21D;37392;50.964;6.952;2023-05-19T05:29:15;22.39;49.79
51305;HTU21D;37392;50.964;6.952;2023-05-19T05:31:40;22.41;49.56
51305;HTU21D;37392;50.964;6.952;2023-05-19T05:34:06;22.78;48.64
51305;HTU21D;37392;50.964;6.952;2023-05-19T05:36:31;23.14;47.22
51305;HTU21D;37392;50.964;6.952;2023-05-19T05:38:59;23.27;46.89
51305;HTU21D;37392;50.964;6.952;2023-05-19T05:41:26;23.20;46.61
51305;HTU21D;37392;50.964;6.952;2023-05-19T05:43:53;23.08;45.69
51305;HTU21D;37392;50.964;6.952;2023-05-19T05:46:19;23.27;44.90
51305;HTU21D;37392;50.964;6.952;2023-05-19T05:48:44;23.18;44.49
51305;HTU21D;37392;50.964;6.952;2023-05-19T05:51:10;22.75;45.02
51305;HTU21D;37392;50.964;6.952;2023-05-19T05:53:38;23.29;45.22
51305;HTU21D;37392;50.964;6.952;2023-05-19T05:56:07;23.99;43.71
51305;HTU21D;37392;50.964;6.952;2023-05-19T05:58:33;24.44;42.59
51305;HTU21D;37392;50.964;6.952;2023-05-19T06:00:59;24.94;41.80
51305;HTU21D;37392;50.964;6.952;2023-05-19T06:03:26;24.95;41.62
51305;HTU21D;37392;50.964;6.952;2023-05-19T06:05:52;24.20;41.98
51305;HTU21D;37392;50.964;6.952;2023-05-19T06:08:17;23.44;43.08
51305;HTU21D;37392;50.964;6.952;2023-05-19T06:10:43;23.05;43.61
51305;HTU21D;37392;50.964;6.952;2023-05-19T06:13:08;24.24;42.71
51305;HTU21D;37392;50.964;6.952;2023-05-19T06:15:34;24.28;42.13
51305;HTU21D;37392;50.964;6.952;2023-05-19T06:18:00;24.71;41.05
51305;HTU21D;37392;50.964;6.952;2023-05-19T06:20:26;24.93;40.06
51305;HTU21D;37392;50.964;6.952;2023-05-19T06:22:51;23.70;41.29
51305;HTU21D;37392;50.964;6.952;2023-05-19T06:25:16;24.80;40.45
51305;HTU21D;37392;50.964;6.952;2023-05-19T06:27:42;24.68;40.13
51305;HTU21D;37392;50.964;6.952;2023-05-19T06:30:07;24.86;40.55
51305;HTU21D;37392;50.964;6.952;2023-05-19T06:32:33;25.05;40.08
51305;HTU21D;37392;50.964;6.952;2023-05-19T06:34:59;25.09;38.64
51305;HTU21D;37392;50.964;6.952;2023-05-19T06:37:24;25.51;38.38
51305;HTU21D;37392;50.964;6.952;2023-05-19T06:39:51;25.38;37.94
51305;HTU21D;37392;50.964;6.952;2023-05-19T06:42:17;25.25;38.84
51305;HTU21D;37392;50.964;6.952;2023-05-19T06:44:46;24.91;38.91
51305;HTU21D;37392;50.964;6.952;2023-05-19T06:47:15;25.27;38.46
51305;HTU21D;37392;50.964;6.952;2023-05-19T06:49:41;25.39;38.69
51305;HTU21D;37392;50.964;6.952;2023-05-19T06:52:08;26.52;37.11
51305;HTU21D;37392;50.964;6.952;2023-05-19T06:54:33;26.30;36.47
51305;HTU21D;37392;50.964;6.952;2023-05-19T06:56:59;26.45;37.29
51305;HTU21D;37392;50.964;6.952;2023-05-19T06:59:24;26.57;36.79
51305;HTU21D;37392;50.964;6.952;2023-05-19T07:01:50;26.03;37.21
51305;HTU21D;37392;50.964;6.952;2023-05-19T07:04:16;26.71;36.65
51305;HTU21D;37392;50.964;6.952;2023-05-19T07:06:41;25.75;36.84
51305;HTU21D;37392;50.964;6.952;2023-05-19T07:09:07;26.83;36.25
51305;HTU21D;37392;50.964;6.952;2023-05-19T07:11:33;26.38;36.51
51305;HTU21D;37392;50.964;6.952;2023-05-19T07:13:58;26.69;36.54
51305;HTU21D;37392;50.964;6.952;2023-05-19T07:16:24;27.23;35.70
51305;HTU21D;37392;50.964;6.952;2023-05-19T07:18:49;26.62;35.56
51305;HTU21D;37392;50.964;6.952;2023-05-19T07:21:15;27.53;34.89
51305;HTU21D;37392;50.964;6.952;2023-05-19T07:23:41;27.78;34.85
51305;HTU21D;37392;50.964;6.952;2023-05-19T07:26:06;27.00;35.35
51305;HTU21D;37392;50.964;6.952;2023-05-19T07:28:32;26.67;35.48
51305;HTU21D;37392;50.964;6.952;2023-05-19T07:30:58;27.07;35.50
51305;HTU21D;37392;50.964;6.952;2023-05-19T07:33:24;26.52;36.08
51305;HTU21D;37392;50.964;6.952;2023-05-19T07:35:51;26.58;36.02
51305;HTU21D;37392;50.964;6.952;2023-05-19T07:38:18;26.83;36.07
51305;HTU21D;37392;50.964;6.952;2023-05-19T07:40:43;27.09;35.42
51305;HTU21D;37392;50.964;6.952;2023-05-19T07:43:09;27.73;34.76
51305;HTU21D;37392;50.964;6.952;2023-05-19T07:45:35;27.45;34.85
51305;HTU21D;37392;50.964;6.952;2023-05-19T07:48:01;28.16;34.66
51305;HTU21D;37392;50.964;6.952;2023-05-19T07:50:27;28.25;33.83
51305;HTU21D;37392;50.964;6.952;2023-05-19T07:52:53;28.35;34.05
51305;HTU21D;37392;50.964;6.952;2023-05-19T07:55:18;28.48;33.30
51305;HTU21D;37392;50.964;6.952;2023-05-19T07:57:46;29.77;32.45
51305;HTU21D;37392;50.964;6.952;2023-05-19T08:00:12;29.39;32.33
51305;HTU21D;37392;50.964;6.952;2023-05-19T08:02:38;29.58;32.77
51305;HTU21D;37392;50.964;6.952;2023-05-19T08:05:03;29.48;32.22
51305;HTU21D;37392;50.964;6.952;2023-05-19T08:07:29;29.36;31.99
51305;HTU21D;37392;50.964;6.952;2023-05-19T08:09:55;29.09;32.91
51305;HTU21D;37392;50.964;6.952;2023-05-19T08:12:20;29.42;32.40
51305;HTU21D;37392;50.964;6.952;2023-05-19T08:14:46;29.73;32.02
51305;HTU21D;37392;50.964;6.952;2023-05-19T08:17:11;29.96;31.39
51305;HTU21D;37392;50.964;6.952;2023-05-19T08:19:37;29.65;31.31
51305;HTU21D;37392;50.964;6.952;2023-05-19T08:22:02;29.75;31.82
51305;HTU21D;37392;50.964;6.952;2023-05-19T08:24:28;29.29;31.87
51305;HTU21D;37392;50.964;6.952;2023-05-19T08:26:54;30.02;31.34
51305;HTU21D;37392;50.964;6.952;2023-05-19T08:29:19;29.29;31.23
51305;HTU21D;37392;50.964;6.952;2023-05-19T08:31:45;30.05;30.80
51305;HTU21D;37392;50.964;6.952;2023-05-19T08:34:10;30.17;30.29
51305;HTU21D;37392;50.964;6.952;2023-05-19T08:36:36;29.44;30.70
51305;HTU21D;37392;50.964;6.952;2023-05-19T08:39:02;30.09;30.63
51305;HTU21D;37392;50.964;6.952;2023-05-19T08:41:27;30.24;30.53
51305;HTU21D;37392;50.964;6.952;2023-05-19T08:43:53;30.92;29.84
51305;HTU21D;37392;50.964;6.952;2023-05-19T08:46:19;31.33;29.24
51305;HTU21D;37392;50.964;6.952;2023-05-19T08:48:46;32.01;28.53
51305;HTU21D;37392;50.964;6.952;2023-05-19T08:54:15;30.75;28.97
51305;HTU21D;37392;50.964;6.952;2023-05-19T08:56:43;30.87;28.93
51305;HTU21D;37392;50.964;6.952;2023-05-19T08:59:10;31.92;28.30
51305;HTU21D;37392;50.964;6.952;2023-05-19T09:01:38;32.28;27.52
51305;HTU21D;37392;50.964;6.952;2023-05-19T09:04:04;31.98;27.39
51305;HTU21D;37392;50.964;6.952;2023-05-19T09:06:30;31.87;27.94
51305;HTU21D;37392;50.964;6.952;2023-05-19T09:08:56;32.22;27.49
51305;HTU21D;37392;50.964;6.952;2023-05-19T09:11:22;32.47;26.76
51305;HTU21D;37392;50.964;6.952;2023-05-19T09:13:47;32.28;26.78
51305;HTU21D;37392;50.964;6.952;2023-05-19T09:16:14;31.45;27.67
51305;HTU21D;37392;50.964;6.952;2023-05-19T09:18:52;31.86;27.48
51305;HTU21D;37392;50.964;6.952;2023-05-19T09:21:18;32.93;26.66
51305;HTU21D;37392;50.964;6.952;2023-05-19T09:23:44;33.41;25.94
51305;HTU21D;37392;50.964;6.952;2023-05-19T09:26:11;33.73;25.56
51305;HTU21D;37392;50.964;6.952;2023-05-19T09:28:36;34.02;25.28
51305;HTU21D;37392;50.964;6.952;2023-05-19T09:31:04;33.57;25.33
51305;HTU21D;37392;50.964;6.952;2023-05-19T09:33:34;33.55;25.35
51305;HTU21D;37392;50.964;6.952;2023-05-19T09:36:04;33.38;25.36
51305;HTU21D;37392;50.964;6.952;2023-05-19T09:38:30;33.73;25.69
51305;HTU21D;37392;50.964;6.952;2023-05-19T09:41:00;34.12;25.68
51305;HTU21D;37392;50.964;6.952;2023-05-19T09:43:29;34.57;24.89
51305;HTU21D;37392;50.964;6.952;2023-05-19T09:46:05;33.89;24.65
51305;HTU21D;37392;50.964;6.952;2023-05-19T09:48:34;34.06;25.59
51305;HTU21D;37392;50.964;6.952;2023-05-19T09:51:01;34.80;24.83
51305;HTU21D;37392;50.964;6.952;2023-05-19T09:53:28;33.88;24.61
51305;HTU21D;37392;50.964;6.952;2023-05-19T09:55:54;34.02;24.88
51305;HTU21D;37392;50.964;6.952;2023-05-19T09:58:21;34.69;24.27
51305;HTU21D;37392;50.964;6.952;2023-05-19T10:00:49;34.50;24.25
51305;HTU21D;37392;50.964;6.952;2023-05-19T10:03:16;35.54;23.46
51305;HTU21D;37392;50.964;6.952;2023-05-19T10:05:43;36.02;22.96
51305;HTU21D;37392;50.964;6.952;2023-05-19T10:08:09;36.76;22.25
51305;HTU21D;37392;50.964;6.952;2023-05-19T10:10:36;36.73;22.04
51305;HTU21D;37392;50.964;6.952;2023-05-19T10:13:03;36.37;22.31
51305;HTU21D;37392;50.964;6.952;2023-05-19T10:15:29;35.75;22.63
51305;HTU21D;37392;50.964;6.952;2023-05-19T10:17:55;35.31;22.76
51305;HTU21D;37392;50.964;6.952;2023-05-19T10:20:21;35.10;23.37
51305;HTU21D;37392;50.964;6.952;2023-05-19T10:22:47;34.22;23.51
51305;HTU21D;37392;50.964;6.952;2023-05-19T10:25:16;33.27;24.38
51305;HTU21D;37392;50.964;6.952;2023-05-19T10:27:46;33.47;24.55
51305;HTU21D;37392;50.964;6.952;2023-05-19T10:30:25;34.19;23.94
51305;HTU21D;37392;50.964;6.952;2023-05-19T10:32:53;35.62;22.92
51305;HTU21D;37392;50.964;6.952;2023-05-19T10:35:32;35.78;22.65
51305;HTU21D;37392;50.964;6.952;2023-05-19T10:38:20;35.60;22.72
51305;HTU21D;37392;50.964;6.952;2023-05-19T10:46:29;34.16;23.93
51305;HTU21D;37392;50.964;6.952;2023-05-19T10:48:55;33.11;24.49
51305;HTU21D;37392;50.964;6.952;2023-05-19T10:51:21;32.39;24.97
51305;HTU21D;37392;50.964;6.952;2023-05-19T10:53:52;31.35;25.81
51305;HTU21D;37392;50.964;6.952;2023-05-19T10:56:28;30.89;26.76
51305;HTU21D;37392;50.964;6.952;2023-05-19T10:58:57;30.92;27.01
51305;HTU21D;37392;50.964;6.952;2023-05-19T11:01:22;32.01;26.14
51305;HTU21D;37392;50.964;6.952;2023-05-19T11:03:55;33.14;25.02
51305;HTU21D;37392;50.964;6.952;2023-05-19T11:06:24;33.41;24.28
51305;HTU21D;37392;50.964;6.952;2023-05-19T11:11:46;34.04;24.22
51305;HTU21D;37392;50.964;6.952;2023-05-19T11:14:22;34.12;23.88
51305;HTU21D;37392;50.964;6.952;2023-05-19T11:16:52;33.58;23.62
51305;HTU21D;37392;50.964;6.952;2023-05-19T11:19:24;33.21;24.32
51305;HTU21D;37392;50.964;6.952;2023-05-19T11:21:53;33.16;24.36
51305;HTU21D;37392;50.964;6.952;2023-05-19T11:29:47;29.16;28.03
51305;HTU21D;37392;50.964;6.952;2023-05-19T11:32:13;28.72;29.41
51305;HTU21D;37392;50.964;6.952;2023-05-19T11:34:39;28.82;29.18
51305;HTU21D;37392;50.964;6.952;2023-05-19T11:37:05;28.24;29.41
51305;HTU21D;37392;50.964;6.952;2023-05-19T11:39:31;27.06;30.81
51305;HTU21D;37392;50.964;6.952;2023-05-19T11:41:57;26.09;32.32
51305;HTU21D;37392;50.964;6.952;2023-05-19T11:44:22;26.15;32.63
51305;HTU21D;37392;50.964;6.952;2023-05-19T11:46:48;26.33;32.62
51305;HTU21D;37392;50.964;6.952;2023-05-19T11:49:13;26.56;32.35
51305;HTU21D;37392;50.964;6.952;2023-05-19T11:51:41;26.65;32.51
51305;HTU21D;37392;50.964;6.952;2023-05-19T11:54:08;26.42;32.71
51305;HTU21D;37392;50.964;6.952;2023-05-19T11:56:38;26.20;32.44
51305;HTU21D;37392;50.964;6.952;2023-05-19T11:59:07;25.92;32.57
51305;HTU21D;37392;50.964;6.952;2023-05-19T12:01:33;25.54;33.40
51305;HTU21D;37392;50.964;6.952;2023-05-19T12:04:00;24.87;33.96
51305;HTU21D;37392;50.964;6.952;2023-05-19T12:06:26;24.72;34.09
51305;HTU21D;37392;50.964;6.952;2023-05-19T12:08:53;24.35;34.09
51305;HTU21D;37392;50.964;6.952;2023-05-19T12:11:19;24.18;34.28
51305;HTU21D;37392;50.964;6.952;2023-05-19T12:13:44;24.10;34.56
51305;HTU21D;37392;50.964;6.952;2023-05-19T12:16:11;23.66;35.63
51305;HTU21D;37392;50.964;6.952;2023-05-19T12:18:36;23.61;35.96
51305;HTU21D;37392;50.964;6.952;2023-05-19T12:21:03;23.46;36.46
51305;HTU21D;37392;50.964;6.952;2023-05-19T12:23:28;23.09;36.93
51305;HTU21D;37392;50.964;6.952;2023-05-19T12:25:55;23.08;37.17
51305;HTU21D;37392;50.964;6.952;2023-05-19T12:28:22;22.99;36.97
51305;HTU21D;37392;50.964;6.952;2023-05-19T12:30:48;23.11;36.80
51305;HTU21D;37392;50.964;6.952;2023-05-19T12:33:18;22.93;36.97
51305;HTU21D;37392;50.964;6.952;2023-05-19T12:35:46;23.14;37.01
51305;HTU21D;37392;50.964;6.952;2023-05-19T12:38:14;23.25;36.63
51305;HTU21D;37392;50.964;6.952;2023-05-19T12:40:40;23.35;36.55
51305;HTU21D;37392;50.964;6.952;2023-05-19T12:43:07;23.50;36.18
51305;HTU21D;37392;50.964;6.952;2023-05-19T12:45:36;23.71;36.08
51305;HTU21D;37392;50.964;6.952;2023-05-19T12:48:09;23.85;36.25
51305;HTU21D;37392;50.964;6.952;2023-05-19T12:50:35;23.62;36.51
51305;HTU21D;37392;50.964;6.952;2023-05-19T12:53:02;23.62;36.93
51305;HTU21D;37392;50.964;6.952;2023-05-19T12:55:28;23.62;37.33
51305;HTU21D;37392;50.964;6.952;2023-05-19T12:57:53;23.50;37.91
51305;HTU21D;37392;50.964;6.952;2023-05-19T13:00:22;23.12;37.98
51305;HTU21D;37392;50.964;6.952;2023-05-19T13:03:03;23.01;38.66
51305;HTU21D;37392;50.964;6.952;2023-05-19T13:05:30;22.75;38.46
51305;HTU21D;37392;50.964;6.952;2023-05-19T13:07:58;22.65;38.55
51305;HTU21D;37392;50.964;6.952;2023-05-19T13:10:25;22.67;38.82
51305;HTU21D;37392;50.964;6.952;2023-05-19T13:12:54;22.76;38.85
51305;HTU21D;37392;50.964;6.952;2023-05-19T13:15:21;22.82;38.82
51305;HTU21D;37392;50.964;6.952;2023-05-19T13:17:51;22.91;38.65
51305;HTU21D;37392;50.964;6.952;2023-05-19T13:20:17;22.95;38.88
51305;HTU21D;37392;50.964;6.952;2023-05-19T13:22:43;22.63;38.20
51305;HTU21D;37392;50.964;6.952;2023-05-19T13:25:08;22.69;38.70
51305;HTU21D;37392;50.964;6.952;2023-05-19T13:27:34;22.69;38.80
51305;HTU21D;37392;50.964;6.952;2023-05-19T13:30:00;22.76;38.85
51305;HTU21D;37392;50.964;6.952;2023-05-19T13:32:25;22.78;38.26
51305;HTU21D;37392;50.964;6.952;2023-05-19T13:34:51;22.81;38.15
51305;HTU21D;37392;50.964;6.952;2023-05-19T13:37:16;22.68;38.14
51305;HTU21D;37392;50.964;6.952;2023-05-19T13:39:42;22.39;38.69
51305;HTU21D;37392;50.964;6.952;2023-05-19T13:42:07;22.39;39.08
51305;HTU21D;37392;50.964;6.952;2023-05-19T13:44:33;22.38;38.78
51305;HTU21D;37392;50.964;6.952;2023-05-19T13:46:58;22.36;39.12
51305;HTU21D;37392;50.964;6.952;2023-05-19T13:49:24;22.51;39.10
51305;HTU21D;37392;50.964;6.952;2023-05-19T13:51:50;22.53;38.79
51305;HTU21D;37392;50.964;6.952;2023-05-19T13:54:16;22.53;39.01
51305;HTU21D;37392;50.964;6.952;2023-05-19T13:56:42;22.64;38.98
51305;HTU21D;37392;50.964;6.952;2023-05-19T13:59:10;22.44;38.79
51305;HTU21D;37392;50.964;6.952;2023-05-19T14:01:35;22.28;39.27
51305;HTU21D;37392;50.964;6.952;2023-05-19T14:04:01;22.06;39.79
51305;HTU21D;37392;50.964;6.952;2023-05-19T14:06:26;22.28;39.90
51305;HTU21D;37392;50.964;6.952;2023-05-19T14:08:52;22.33;39.49
51305;HTU21D;37392;50.964;6.952;2023-05-19T14:11:20;22.38;39.75
51305;HTU21D;37392;50.964;6.952;2023-05-19T14:13:49;22.11;40.31
51305;HTU21D;37392;50.964;6.952;2023-05-19T14:16:15;22.13;39.97
51305;HTU21D;37392;50.964;6.952;2023-05-19T14:18:41;22.26;40.13
51305;HTU21D;37392;50.964;6.952;2023-05-19T14:21:06;22.44;39.97
51305;HTU21D;37392;50.964;6.952;2023-05-19T14:23:32;22.51;39.42
51305;HTU21D;37392;50.964;6.952;2023-05-19T14:25:58;22.39;39.68
51305;HTU21D;37392;50.964;6.952;2023-05-19T14:28:23;22.54;39.91
51305;HTU21D;37392;50.964;6.952;2023-05-19T14:30:49;22.69;39.68
51305;HTU21D;37392;50.964;6.952;2023-05-19T14:33:15;22.67;39.24
51305;HTU21D;37392;50.964;6.952;2023-05-19T14:35:45;22.62;39.78
51305;HTU21D;37392;50.964;6.952;2023-05-19T14:38:11;22.65;40.10
51305;HTU21D;37392;50.964;6.952;2023-05-19T14:40:37;22.76;39.96
51305;HTU21D;37392;50.964;6.952;2023-05-19T14:43:05;22.65;40.18
51305;HTU21D;37392;50.964;6.952;2023-05-19T14:45:31;22.52;40.20
51305;HTU21D;37392;50.964;6.952;2023-05-19T14:47:57;22.47;40.37
51305;HTU21D;37392;50.964;6.952;2023-05-19T14:50:22;22.63;40.50
51305;HTU21D;37392;50.964;6.952;2023-05-19T14:52:48;22.63;40.81
51305;HTU21D;37392;50.964;6.952;2023-05-19T14:55:13;22.67;40.50
51305;HTU21D;37392;50.964;6.952;2023-05-19T14:57:39;22.76;39.86
51305;HTU21D;37392;50.964;6.952;2023-05-19T15:00:05;22.79;39.81
51305;HTU21D;37392;50.964;6.952;2023-05-19T15:02:33;22.82;40.02
51305;HTU21D;37392;50.964;6.952;2023-05-19T15:04:59;22.75;39.72
51305;HTU21D;37392;50.964;6.952;2023-05-19T15:07:25;22.73;40.53
51305;HTU21D;37392;50.964;6.952;2023-05-19T15:09:51;22.53;41.12
51305;HTU21D;37392;50.964;6.952;2023-05-19T15:12:16;22.22;41.75
51305;HTU21D;37392;50.964;6.952;2023-05-19T15:14:42;22.04;42.46
51305;HTU21D;37392;50.964;6.952;2023-05-19T15:17:07;21.94;42.61
51305;HTU21D;37392;50.964;6.952;2023-05-19T15:19:33;21.81;42.81
51305;HTU21D;37392;50.964;6.952;2023-05-19T15:21:58;21.74;43.06
51305;HTU21D;37392;50.964;6.952;2023-05-19T15:24:24;21.72;43.37
51305;HTU21D;37392;50.964;6.952;2023-05-19T15:26:49;21.64;43.37
51305;HTU21D;37392;50.964;6.952;2023-05-19T15:29:16;21.64;43.55
51305;HTU21D;37392;50.964;6.952;2023-05-19T15:31:41;21.72;43.44
51305;HTU21D;37392;50.964;6.952;2023-05-19T15:34:07;21.84;43.39
51305;HTU21D;37392;50.964;6.952;2023-05-19T15:36:32;21.93;42.93
51305;HTU21D;37392;50.964;6.952;2023-05-19T15:38:58;22.05;42.51
51305;HTU21D;37392;50.964;6.952;2023-05-19T15:41:24;21.96;42.54
51305;HTU21D;37392;50.964;6.952;2023-05-19T15:43:49;22.03;42.67
51305;HTU21D;37392;50.964;6.952;2023-05-19T15:46:15;22.12;42.42
51305;HTU21D;37392;50.964;6.952;2023-05-19T15:48:43;21.89;42.43
51305;HTU21D;37392;50.964;6.952;2023-05-19T15:51:09;21.76;42.72